sensor_id;sensor_type;location;lat;lon;timestamp;temperature;humidity
13992;DHT22;7070;53.586;9.692;2023-12-20T00:02:19;5.00;92.00
13992;DHT22;7070;53.586;9.692;2023-12-20T00:04:46;5.00;92.10
13992;DHT22;7070;53.586;9.692;2023-12-20T00:07:13;5.00;92.20
13992;DHT22;7070;53.586;9.692;2023-12-20T00:09:40;5.00;92.20
13992;DHT22;7070;53.586;9.692;2023-12-20T00:12:09;5.00;92.20
13992;DHT22;7070;53.586;9.692;2023-12-20T00:14:36;4.90;92.40
13992;DHT22;7070;53.586;9.692;2023-12-20T00:17:03;5.00;92.60
13992;DHT22;7070;53.586;9.692;2023-12-20T00:19:30;5.10;92.90
13992;DHT22;7070;53.586;9.692;2023-12-20T00:21:57;5.20;92.90
13992;DHT22;7070;53.586;9.692;2023-12-20T00:24:25;5.20;92.90
13992;DHT22;7070;53.586;9.692;2023-12-20T00:26:52;5.30;92.80
13992;DHT22;7070;53.586;9.692;2023-12-20T00:29:20;5.30;92.80
13992;DHT22;7070;53.586;9.692;2023-12-20T00:31:47;5.40;92.90
13992;DHT22;7070;53.586;9.692;2023-12-20T00:34:14;5.50;93.10
13992;DHT22;7070;53.586;9.692;2023-12-20T00:36:40;5.60;93.10
13992;DHT22;7070;53.586;9.692;2023-12-20T00:39:07;5.60;93.00
13992;DHT22;7070;53.586;9.692;2023-12-20T00:41:34;5.70;93.10
13992;DHT22;7070;53.586;9.692;2023-12-20T00:44:01;5.80;93.10
13992;DHT22;7070;53.586;9.692;2023-12-20T00:46:29;5.80;93.30
13992;DHT22;7070;53.586;9.692;2023-12-20T00:48:56;5.90;92.90
13992;DHT22;7070;53.586;9.692;2023-12-20T00:51:23;5.90;92.70
13992;DHT22;7070;53.586;9.692;2023-12-20T00:53:50;5.90;92.60
13992;DHT22;7070;53.586;9.692;2023-12-20T00:56:20;5.80;92.50
13992;DHT22;7070;53.586;9.692;2023-12-20T00:58:47;5.70;92.40
13992;DHT22;7070;53.586;9.692;2023-12-20T01:01:13;5.70;92.40
13992;DHT22;7070;53.586;9.692;2023-12-20T01:03:42;5.70;92.30
13992;DHT22;7070;53.586;9.692;2023-12-20T01:06:08;5.60;92.30
13992;DHT22;7070;53.586;9.692;2023-12-20T01:08:35;5.60;92.20
13992;DHT22;7070;53.586;9.692;2023-12-20T01:11:04;5.50;92.30
13992;DHT22;7070;53.586;9.692;2023-12-20T01:13:31;5.50;92.30
13992;DHT22;7070;53.586;9.692;2023-12-20T01:15:58;5.40;92.10
13992;DHT22;7070;53.586;9.692;2023-12-20T01:18:25;5.40;92.20
13992;DHT22;7070;53.586;9.692;2023-12-20T01:20:53;5.30;92.20
13992;DHT22;7070;53.586;9.692;2023-12-20T01:23:20;5.20;92.20
13992;DHT22;7070;53.586;9.692;2023-12-20T01:25:46;5.20;92.20
13992;DHT22;7070;53.586;9.692;2023-12-20T01:28:13;5.20;92.30
13992;DHT22;7070;53.586;9.692;2023-12-20T01:30:40;5.20;92.20
13992;DHT22;7070;53.586;9.692;2023-12-20T01:33:07;5.10;92.20
13992;DHT22;7070;53.586;9.692;2023-12-20T01:35:34;5.20;92.20
13992;DHT22;7070;53.586;9.692;2023-12-20T01:38:02;5.10;92.30
13992;DHT22;7070;53.586;9.692;2023-12-20T01:40:29;5.10;92.40
13992;DHT22;7070;53.586;9.692;2023-12-20T01:42:59;5.10;92.50
13992;DHT22;7070;53.586;9.692;2023-12-20T01:45:26;5.20;92.50
13992;DHT22;7070;53.586;9.692;2023-12-20T01:47:53;5.20;92.50
13992;DHT22;7070;53.586;9.692;2023-12-20T01:50:21;5.20;92.70
13992;DHT22;7070;53.586;9.692;2023-12-20T01:52:48;5.20;92.50
13992;DHT22;7070;53.586;9.692;2023-12-20T01:55:19;5.20;92.60
13992;DHT22;7070;53.586;9.692;2023-12-20T01:57:47;5.10;92.50
13992;DHT22;7070;53.586;9.692;2023-12-20T02:00:15;5.10;92.50
13992;DHT22;7070;53.586;9.692;2023-12-20T02:02:43;5.10;92.50
13992;DHT22;7070;53.586;9.692;2023-12-20T02:05:11;5.10;92.50
13992;DHT22;7070;53.586;9.692;2023-12-20T02:07:38;5.10;92.60
13992;DHT22;7070;53.586;9.692;2023-12-20T02:10:06;5.10;92.50
13992;DHT22;7070;53.586;9.692;2023-12-20T02:12:35;5.20;92.70
13992;DHT22;7070;53.586;9.692;2023-12-20T02:15:02;5.20;92.80
13992;DHT22;7070;53.586;9.692;2023-12-20T02:17:30;5.20;92.90
13992;DHT22;7070;53.586;9.692;2023-12-20T02:19:57;5.30;93.00
13992;DHT22;7070;53.586;9.692;2023-12-20T02:22:25;5.40;93.00
13992;DHT22;7070;53.586;9.692;2023-12-20T02:24:52;5.40;93.00
13992;DHT22;7070;53.586;9.692;2023-12-20T02:27:19;5.50;93.10
13992;DHT22;7070;53.586;9.692;2023-12-20T02:29:47;5.50;93.10
13992;DHT22;7070;53.586;9.692;2023-12-20T02:32:14;5.60;93.30
13992;DHT22;7070;53.586;9.692;2023-12-20T02:34:42;5.70;93.60
13992;DHT22;7070;53.586;9.692;2023-12-20T02:37:09;5.80;93.30
13992;DHT22;7070;53.586;9.692;2023-12-20T02:39:37;5.80;93.20
13992;DHT22;7070;53.586;9.692;2023-12-20T02:42:04;5.90;93.20
13992;DHT22;7070;53.586;9.692;2023-12-20T02:44:31;5.90;93.20
13992;DHT22;7070;53.586;9.692;2023-12-20T02:46:57;6.00;93.20
13992;DHT22;7070;53.586;9.692;2023-12-20T02:49:24;6.10;93.10
13992;DHT22;7070;53.586;9.692;2023-12-20T02:51:51;6.10;93.10
13992;DHT22;7070;53.586;9.692;2023-12-20T02:54:18;6.20;93.20
13992;DHT22;7070;53.586;9.692;2023-12-20T02:56:46;6.20;93.10
13992;DHT22;7070;53.586;9.692;2023-12-20T02:59:13;6.20;93.00
13992;DHT22;7070;53.586;9.692;2023-12-20T03:01:42;6.20;93.00
13992;DHT22;7070;53.586;9.692;2023-12-20T03:04:09;6.30;93.20
13992;DHT22;7070;53.586;9.692;2023-12-20T03:06:36;6.30;93.00
13992;DHT22;7070;53.586;9.692;2023-12-20T03:09:03;6.30;93.00
13992;DHT22;7070;53.586;9.692;2023-12-20T03:11:30;6.30;92.80
13992;DHT22;7070;53.586;9.692;2023-12-20T03:13:58;6.30;92.90
13992;DHT22;7070;53.586;9.692;2023-12-20T03:16:25;6.30;93.00
13992;DHT22;7070;53.586;9.692;2023-12-20T03:18:52;6.30;93.00
13992;DHT22;7070;53.586;9.692;2023-12-20T03:21:19;6.40;93.10
13992;DHT22;7070;53.586;9.692;2023-12-20T03:23:45;6.40;93.00
13992;DHT22;7070;53.586;9.692;2023-12-20T03:26:12;6.40;93.10
13992;DHT22;7070;53.586;9.692;2023-12-20T03:28:39;6.40;93.10
13992;DHT22;7070;53.586;9.692;2023-12-20T03:31:09;6.50;93.10
13992;DHT22;7070;53.586;9.692;2023-12-20T03:33:36;6.50;93.10
13992;DHT22;7070;53.586;9.692;2023-12-20T03:36:03;6.50;93.00
13992;DHT22;7070;53.586;9.692;2023-12-20T03:38:30;6.50;93.00
13992;DHT22;7070;53.586;9.692;2023-12-20T03:40:57;6.50;92.90
13992;DHT22;7070;53.586;9.692;2023-12-20T03:43:24;6.50;92.90
13992;DHT22;7070;53.586;9.692;2023-12-20T03:45:50;6.50;93.00
13992;DHT22;7070;53.586;9.692;2023-12-20T03:48:19;6.60;92.90
13992;DHT22;7070;53.586;9.692;2023-12-20T03:50:45;6.50;93.00
13992;DHT22;7070;53.586;9.692;2023-12-20T03:53:12;6.60;93.00
13992;DHT22;7070;53.586;9.692;2023-12-20T03:55:39;6.60;93.10
13992;DHT22;7070;53.586;9.692;2023-12-20T03:58:06;6.60;93.10
13992;DHT22;7070;53.586;9.692;2023-12-20T04:00:33;6.60;93.10
13992;DHT22;7070;53.586;9.692;2023-12-20T04:03:00;6.60;93.10
13992;DHT22;7070;53.586;9.692;2023-12-20T04:05:28;6.70;93.00
13992;DHT22;7070;53.586;9.692;2023-12-20T04:07:55;6.70;93.00
13992;DHT22;7070;53.586;9.692;2023-12-20T04:10:22;6.80;93.10
13992;DHT22;7070;53.586;9.692;2023-12-20T04:12:48;6.70;93.00
13992;DHT22;7070;53.586;9.692;2023-12-20T04:15:15;6.70;93.00
13992;DHT22;7070;53.586;9.692;2023-12-20T04:17:42;6.70;92.90
13992;DHT22;7070;53.586;9.692;2023-12-20T04:20:09;6.70;92.90
13992;DHT22;7070;53.586;9.692;2023-12-20T04:22:38;6.70;93.00
13992;DHT22;7070;53.586;9.692;2023-12-20T04:25:05;6.70;93.00
13992;DHT22;7070;53.586;9.692;2023-12-20T04:27:32;6.70;93.10
13992;DHT22;7070;53.586;9.692;2023-12-20T04:29:59;6.70;93.00
13992;DHT22;7070;53.586;9.692;2023-12-20T04:32:26;6.70;93.00
13992;DHT22;7070;53.586;9.692;2023-12-20T04:34:53;6.70;93.00
13992;DHT22;7070;53.586;9.692;2023-12-20T04:37:20;6.70;92.90
13992;DHT22;7070;53.586;9.692;2023-12-20T04:39:48;6.70;92.90
13992;DHT22;7070;53.586;9.692;2023-12-20T04:42:15;6.70;92.80
13992;DHT22;7070;53.586;9.692;2023-12-20T04:44:43;6.70;92.90
13992;DHT22;7070;53.586;9.692;2023-12-20T04:47:10;6.70;92.90
13992;DHT22;7070;53.586;9.692;2023-12-20T04:49:37;6.70;92.90
13992;DHT22;7070;53.586;9.692;2023-12-20T04:52:04;6.90;93.10
13992;DHT22;7070;53.586;9.692;2023-12-20T04:54:31;6.70;93.10
13992;DHT22;7070;53.586;9.692;2023-12-20T04:56:59;6.70;93.00
13992;DHT22;7070;53.586;9.692;2023-12-20T04:59:26;6.80;93.20
13992;DHT22;7070;53.586;9.692;2023-12-20T05:01:53;6.80;93.10
13992;DHT22;7070;53.586;9.692;2023-12-20T05:04:20;6.80;93.20
13992;DHT22;7070;53.586;9.692;2023-12-20T05:06:47;6.80;93.10
13992;DHT22;7070;53.586;9.692;2023-12-20T05:09:15;6.80;93.40
13992;DHT22;7070;53.586;9.692;2023-12-20T05:11:42;6.80;92.90
13992;DHT22;7070;53.586;9.692;2023-12-20T05:14:10;6.80;92.90
13992;DHT22;7070;53.586;9.692;2023-12-20T05:16:37;6.70;92.70
13992;DHT22;7070;53.586;9.692;2023-12-20T05:19:03;6.80;92.80
13992;DHT22;7070;53.586;9.692;2023-12-20T05:21:32;6.80;93.00
13992;DHT22;7070;53.586;9.692;2023-12-20T05:23:59;6.70;92.90
13992;DHT22;7070;53.586;9.692;2023-12-20T05:26:26;6.70;93.00
13992;DHT22;7070;53.586;9.692;2023-12-20T05:28:54;6.70;93.00
13992;DHT22;7070;53.586;9.692;2023-12-20T05:31:22;6.80;93.00
13992;DHT22;7070;53.586;9.692;2023-12-20T05:33:49;6.80;93.20
13992;DHT22;7070;53.586;9.692;2023-12-20T05:36:16;6.90;93.20
13992;DHT22;7070;53.586;9.692;2023-12-20T05:38:43;6.90;93.60
13992;DHT22;7070;53.586;9.692;2023-12-20T05:41:10;6.90;93.20
13992;DHT22;7070;53.586;9.692;2023-12-20T05:43:37;7.00;93.20
13992;DHT22;7070;53.586;9.692;2023-12-20T05:46:03;7.00;93.20
13992;DHT22;7070;53.586;9.692;2023-12-20T05:48:32;7.00;93.20
13992;DHT22;7070;53.586;9.692;2023-12-20T05:50:59;7.00;93.20
13992;DHT22;7070;53.586;9.692;2023-12-20T05:53:25;7.00;93.20
13992;DHT22;7070;53.586;9.692;2023-12-20T05:55:53;7.00;93.20
13992;DHT22;7070;53.586;9.692;2023-12-20T05:58:19;7.00;93.00
13992;DHT22;7070;53.586;9.692;2023-12-20T06:00:46;7.10;93.10
13992;DHT22;7070;53.586;9.692;2023-12-20T06:03:14;7.10;93.00
13992;DHT22;7070;53.586;9.692;2023-12-20T06:05:42;7.00;92.90
13992;DHT22;7070;53.586;9.692;2023-12-20T06:08:09;7.00;92.80
13992;DHT22;7070;53.586;9.692;2023-12-20T06:10:36;7.00;93.00
13992;DHT22;7070;53.586;9.692;2023-12-20T06:13:03;7.00;92.80
13992;DHT22;7070;53.586;9.692;2023-12-20T06:15:32;7.00;92.80
13992;DHT22;7070;53.586;9.692;2023-12-20T06:17:59;6.90;92.70
13992;DHT22;7070;53.586;9.692;2023-12-20T06:20:26;6.80;92.70
13992;DHT22;7070;53.586;9.692;2023-12-20T06:22:54;6.80;92.70
13992;DHT22;7070;53.586;9.692;2023-12-20T06:25:21;6.80;92.80
13992;DHT22;7070;53.586;9.692;2023-12-20T06:27:48;6.80;93.00
13992;DHT22;7070;53.586;9.692;2023-12-20T06:30:15;6.90;93.00
13992;DHT22;7070;53.586;9.692;2023-12-20T06:32:42;6.80;93.10
13992;DHT22;7070;53.586;9.692;2023-12-20T06:35:09;6.90;93.10
13992;DHT22;7070;53.586;9.692;2023-12-20T06:37:36;6.90;93.20
13992;DHT22;7070;53.586;9.692;2023-12-20T06:40:06;7.00;93.10
13992;DHT22;7070;53.586;9.692;2023-12-20T06:42:33;6.90;93.10
13992;DHT22;7070;53.586;9.692;2023-12-20T06:45:00;7.00;93.50
13992;DHT22;7070;53.586;9.692;2023-12-20T06:47:27;7.00;93.20
13992;DHT22;7070;53.586;9.692;2023-12-20T06:49:53;7.00;93.20
13992;DHT22;7070;53.586;9.692;2023-12-20T06:52:20;7.10;93.50
13992;DHT22;7070;53.586;9.692;2023-12-20T06:54:47;7.10;93.20
13992;DHT22;7070;53.586;9.692;2023-12-20T06:57:16;7.10;93.00
13992;DHT22;7070;53.586;9.692;2023-12-20T06:59:42;7.00;92.80
13992;DHT22;7070;53.586;9.692;2023-12-20T07:02:09;7.00;92.70
13992;DHT22;7070;53.586;9.692;2023-12-20T07:04:39;7.00;92.70
13992;DHT22;7070;53.586;9.692;2023-12-20T07:07:06;6.90;92.80
13992;DHT22;7070;53.586;9.692;2023-12-20T07:09:33;6.90;92.90
13992;DHT22;7070;53.586;9.692;2023-12-20T07:12:00;6.90;93.00
13992;DHT22;7070;53.586;9.692;2023-12-20T07:14:28;6.90;93.10
13992;DHT22;7070;53.586;9.692;2023-12-20T07:16:55;7.00;93.10
13992;DHT22;7070;53.586;9.692;2023-12-20T07:19:21;6.90;93.00
13992;DHT22;7070;53.586;9.692;2023-12-20T07:21:48;7.00;93.10
13992;DHT22;7070;53.586;9.692;2023-12-20T07:24:15;7.00;93.10
13992;DHT22;7070;53.586;9.692;2023-12-20T07:26:42;7.00;93.10
13992;DHT22;7070;53.586;9.692;2023-12-20T07:29:09;7.00;93.20
13992;DHT22;7070;53.586;9.692;2023-12-20T07:31:37;7.10;93.30
13992;DHT22;7070;53.586;9.692;2023-12-20T07:34:04;7.10;93.50
13992;DHT22;7070;53.586;9.692;2023-12-20T07:36:31;7.10;93.30
13992;DHT22;7070;53.586;9.692;2023-12-20T07:38:58;7.10;93.30
13992;DHT22;7070;53.586;9.692;2023-12-20T07:41:25;7.20;93.30
13992;DHT22;7070;53.586;9.692;2023-12-20T07:43:52;7.20;93.30
13992;DHT22;7070;53.586;9.692;2023-12-20T07:46:21;7.30;93.30
13992;DHT22;7070;53.586;9.692;2023-12-20T07:48:50;7.30;93.40
13992;DHT22;7070;53.586;9.692;2023-12-20T07:51:17;7.30;93.30
13992;DHT22;7070;53.586;9.692;2023-12-20T07:53:44;7.40;93.30
13992;DHT22;7070;53.586;9.692;2023-12-20T07:56:15;7.30;93.20
13992;DHT22;7070;53.586;9.692;2023-12-20T07:58:41;7.40;93.30
13992;DHT22;7070;53.586;9.692;2023-12-20T08:01:08;7.40;93.30
13992;DHT22;7070;53.586;9.692;2023-12-20T08:03:35;7.40;93.30
13992;DHT22;7070;53.586;9.692;2023-12-20T08:06:04;7.40;93.30
13992;DHT22;7070;53.586;9.692;2023-12-20T08:08:31;7.40;93.40
13992;DHT22;7070;53.586;9.692;2023-12-20T08:10:58;7.50;93.40
13992;DHT22;7070;53.586;9.692;2023-12-20T08:13:26;7.50;93.40
13992;DHT22;7070;53.586;9.692;2023-12-20T08:15:53;7.50;93.30
13992;DHT22;7070;53.586;9.692;2023-12-20T08:18:21;7.50;93.30
13992;DHT22;7070;53.586;9.692;2023-12-20T08:20:48;7.50;93.20
13992;DHT22;7070;53.586;9.692;2023-12-20T08:23:19;7.60;93.20
13992;DHT22;7070;53.586;9.692;2023-12-20T08:25:47;7.60;93.30
13992;DHT22;7070;53.586;9.692;2023-12-20T08:28:14;7.60;93.30
13992;DHT22;7070;53.586;9.692;2023-12-20T08:30:41;7.60;93.30
13992;DHT22;7070;53.586;9.692;2023-12-20T08:33:08;7.60;93.20
13992;DHT22;7070;53.586;9.692;2023-12-20T08:35:38;7.70;93.40
13992;DHT22;7070;53.586;9.692;2023-12-20T08:38:05;7.70;93.40
13992;DHT22;7070;53.586;9.692;2023-12-20T08:40:33;7.80;93.50
13992;DHT22;7070;53.586;9.692;2023-12-20T08:43:01;7.90;93.50
13992;DHT22;7070;53.586;9.692;2023-12-20T08:45:28;7.90;93.40
13992;DHT22;7070;53.586;9.692;2023-12-20T08:47:54;8.00;93.30
13992;DHT22;7070;53.586;9.692;2023-12-20T08:50:21;8.00;93.30
13992;DHT22;7070;53.586;9.692;2023-12-20T08:52:48;7.90;93.10
13992;DHT22;7070;53.586;9.692;2023-12-20T08:55:15;8.00;93.30
13992;DHT22;7070;53.586;9.692;2023-12-20T08:57:45;8.00;93.10
13992;DHT22;7070;53.586;9.692;2023-12-20T09:00:13;8.00;93.00
13992;DHT22;7070;53.586;9.692;2023-12-20T09:02:41;7.90;93.00
13992;DHT22;7070;53.586;9.692;2023-12-20T09:05:08;7.90;93.00
13992;DHT22;7070;53.586;9.692;2023-12-20T09:07:35;7.90;93.00
13992;DHT22;7070;53.586;9.692;2023-12-20T09:10:02;7.80;92.90
13992;DHT22;7070;53.586;9.692;2023-12-20T09:12:29;7.80;92.90
13992;DHT22;7070;53.586;9.692;2023-12-20T09:14:57;7.80;93.20
13992;DHT22;7070;53.586;9.692;2023-12-20T09:17:24;7.70;92.90
13992;DHT22;7070;53.586;9.692;2023-12-20T09:19:51;7.60;92.80
13992;DHT22;7070;53.586;9.692;2023-12-20T09:22:19;7.60;92.90
13992;DHT22;7070;53.586;9.692;2023-12-20T09:24:46;7.60;92.80
13992;DHT22;7070;53.586;9.692;2023-12-20T09:27:13;7.50;93.00
13992;DHT22;7070;53.586;9.692;2023-12-20T09:29:40;7.50;92.60
13992;DHT22;7070;53.586;9.692;2023-12-20T09:32:08;7.40;92.50
13992;DHT22;7070;53.586;9.692;2023-12-20T09:34:35;7.30;92.40
13992;DHT22;7070;53.586;9.692;2023-12-20T09:37:03;7.20;92.80
13992;DHT22;7070;53.586;9.692;2023-12-20T09:39:31;7.10;92.50
13992;DHT22;7070;53.586;9.692;2023-12-20T09:42:00;7.20;92.70
13992;DHT22;7070;53.586;9.692;2023-12-20T09:44:28;7.20;92.80
13992;DHT22;7070;53.586;9.692;2023-12-20T09:46:56;7.10;92.60
13992;DHT22;7070;53.586;9.692;2023-12-20T09:49:25;7.10;92.60
13992;DHT22;7070;53.586;9.692;2023-12-20T09:51:54;7.10;92.60
13992;DHT22;7070;53.586;9.692;2023-12-20T09:54:22;7.00;92.50
13992;DHT22;7070;53.586;9.692;2023-12-20T09:56:49;7.00;92.50
13992;DHT22;7070;53.586;9.692;2023-12-20T09:59:16;6.90;92.30
13992;DHT22;7070;53.586;9.692;2023-12-20T10:01:43;6.90;92.20
13992;DHT22;7070;53.586;9.692;2023-12-20T10:04:11;6.70;92.40
13992;DHT22;7070;53.586;9.692;2023-12-20T10:06:41;6.70;92.20
13992;DHT22;7070;53.586;9.692;2023-12-20T10:09:08;6.60;92.40
13992;DHT22;7070;53.586;9.692;2023-12-20T10:11:36;6.60;92.60
13992;DHT22;7070;53.586;9.692;2023-12-20T10:14:05;6.60;92.60
13992;DHT22;7070;53.586;9.692;2023-12-20T10:16:32;6.60;92.70
13992;DHT22;7070;53.586;9.692;2023-12-20T10:19:00;6.60;92.60
13992;DHT22;7070;53.586;9.692;2023-12-20T10:21:27;6.70;92.70
13992;DHT22;7070;53.586;9.692;2023-12-20T10:23:57;6.70;92.70
13992;DHT22;7070;53.586;9.692;2023-12-20T10:26:25;6.60;92.70
13992;DHT22;7070;53.586;9.692;2023-12-20T10:28:53;6.70;92.80
13992;DHT22;7070;53.586;9.692;2023-12-20T10:31:28;6.70;92.90
13992;DHT22;7070;53.586;9.692;2023-12-20T10:33:56;6.70;92.90
13992;DHT22;7070;53.586;9.692;2023-12-20T10:36:25;6.80;92.90
13992;DHT22;7070;53.586;9.692;2023-12-20T10:38:53;6.70;92.90
13992;DHT22;7070;53.586;9.692;2023-12-20T10:41:26;6.80;93.20
13992;DHT22;7070;53.586;9.692;2023-12-20T10:43:56;6.80;92.80
13992;DHT22;7070;53.586;9.692;2023-12-20T10:46:25;6.80;92.80
13992;DHT22;7070;53.586;9.692;2023-12-20T10:48:54;6.80;92.90
13992;DHT22;7070;53.586;9.692;2023-12-20T10:51:21;6.90;92.90
13992;DHT22;7070;53.586;9.692;2023-12-20T10:53:50;6.90;92.80
13992;DHT22;7070;53.586;9.692;2023-12-20T10:56:17;6.80;92.60
13992;DHT22;7070;53.586;9.692;2023-12-20T10:58:49;6.80;92.60
13992;DHT22;7070;53.586;9.692;2023-12-20T11:01:17;6.80;92.70
13992;DHT22;7070;53.586;9.692;2023-12-20T11:03:48;6.80;92.70
13992;DHT22;7070;53.586;9.692;2023-12-20T11:06:25;6.80;92.70
13992;DHT22;7070;53.586;9.692;2023-12-20T11:09:01;6.80;92.70
13992;DHT22;7070;53.586;9.692;2023-12-20T11:11:40;6.90;92.60
13992;DHT22;7070;53.586;9.692;2023-12-20T11:14:15;6.80;92.50
13992;DHT22;7070;53.586;9.692;2023-12-20T11:16:43;6.80;92.60
13992;DHT22;7070;53.586;9.692;2023-12-20T11:19:11;6.70;92.90
13992;DHT22;7070;53.586;9.692;2023-12-20T11:21:40;6.70;92.60
13992;DHT22;7070;53.586;9.692;2023-12-20T11:24:07;6.70;92.60
13992;DHT22;7070;53.586;9.692;2023-12-20T11:26:34;6.80;92.70
13992;DHT22;7070;53.586;9.692;2023-12-20T11:29:33;6.80;92.80
13992;DHT22;7070;53.586;9.692;2023-12-20T11:32:02;6.80;92.70
13992;DHT22;7070;53.586;9.692;2023-12-20T11:34:31;6.80;93.10
13992;DHT22;7070;53.586;9.692;2023-12-20T11:36:59;6.90;93.20
13992;DHT22;7070;53.586;9.692;2023-12-20T11:39:27;7.00;93.20
13992;DHT22;7070;53.586;9.692;2023-12-20T11:41:55;7.00;93.20
13992;DHT22;7070;53.586;9.692;2023-12-20T11:44:24;7.20;93.40
13992;DHT22;7070;53.586;9.692;2023-12-20T11:46:54;7.30;93.60
13992;DHT22;7070;53.586;9.692;2023-12-20T11:49:44;7.40;93.50
13992;DHT22;7070;53.586;9.692;2023-12-20T11:52:17;7.50;93.20
13992;DHT22;7070;53.586;9.692;2023-12-20T11:54:44;8.70;93.90
13992;DHT22;7070;53.586;9.692;2023-12-20T11:57:10;7.60;93.60
13992;DHT22;7070;53.586;9.692;2023-12-20T11:59:37;7.50;93.10
13992;DHT22;7070;53.586;9.692;2023-12-20T12:02:06;7.50;93.00
13992;DHT22;7070;53.586;9.692;2023-12-20T12:04:32;7.50;92.90
13992;DHT22;7070;53.586;9.692;2023-12-20T12:06:59;7.50;92.70
13992;DHT22;7070;53.586;9.692;2023-12-20T12:09:26;7.50;92.70
13992;DHT22;7070;53.586;9.692;2023-12-20T12:11:53;7.40;92.60
13992;DHT22;7070;53.586;9.692;2023-12-20T12:14:20;7.30;92.50
13992;DHT22;7070;53.586;9.692;2023-12-20T12:16:47;7.30;92.40
13992;DHT22;7070;53.586;9.692;2023-12-20T12:19:23;7.20;92.40
13992;DHT22;7070;53.586;9.692;2023-12-20T12:21:50;7.20;92.70
13992;DHT22;7070;53.586;9.692;2023-12-20T12:24:20;7.20;92.30
13992;DHT22;7070;53.586;9.692;2023-12-20T12:26:50;7.10;92.30
13992;DHT22;7070;53.586;9.692;2023-12-20T12:29:17;7.10;92.20
13992;DHT22;7070;53.586;9.692;2023-12-20T12:31:44;7.10;92.30
13992;DHT22;7070;53.586;9.692;2023-12-20T12:34:11;7.10;92.40
13992;DHT22;7070;53.586;9.692;2023-12-20T12:36:40;7.00;92.30
13992;DHT22;7070;53.586;9.692;2023-12-20T12:39:06;7.00;92.30
13992;DHT22;7070;53.586;9.692;2023-12-20T12:41:34;7.00;92.40
13992;DHT22;7070;53.586;9.692;2023-12-20T12:44:00;7.00;92.60
13992;DHT22;7070;53.586;9.692;2023-12-20T12:46:28;7.00;92.80
13992;DHT22;7070;53.586;9.692;2023-12-20T12:48:55;7.10;93.00
13992;DHT22;7070;53.586;9.692;2023-12-20T12:51:22;7.20;93.10
13992;DHT22;7070;53.586;9.692;2023-12-20T12:53:50;7.30;93.10
13992;DHT22;7070;53.586;9.692;2023-12-20T12:56:17;7.50;93.00
13992;DHT22;7070;53.586;9.692;2023-12-20T12:58:44;7.50;92.90
13992;DHT22;7070;53.586;9.692;2023-12-20T13:01:11;7.50;92.80
13992;DHT22;7070;53.586;9.692;2023-12-20T13:03:38;7.50;92.60
13992;DHT22;7070;53.586;9.692;2023-12-20T13:06:05;7.50;92.60
13992;DHT22;7070;53.586;9.692;2023-12-20T13:08:34;7.50;92.40
13992;DHT22;7070;53.586;9.692;2023-12-20T13:11:02;7.40;92.40
13992;DHT22;7070;53.586;9.692;2023-12-20T13:13:29;7.40;92.40
13992;DHT22;7070;53.586;9.692;2023-12-20T13:15:56;7.30;92.30
13992;DHT22;7070;53.586;9.692;2023-12-20T13:18:23;7.30;92.30
13992;DHT22;7070;53.586;9.692;2023-12-20T13:20:50;7.20;92.30
13992;DHT22;7070;53.586;9.692;2023-12-20T13:23:17;7.40;92.30
13992;DHT22;7070;53.586;9.692;2023-12-20T13:25:44;7.10;92.30
13992;DHT22;7070;53.586;9.692;2023-12-20T13:28:13;7.20;92.40
13992;DHT22;7070;53.586;9.692;2023-12-20T13:30:40;7.20;92.40
13992;DHT22;7070;53.586;9.692;2023-12-20T13:33:07;7.10;92.30
13992;DHT22;7070;53.586;9.692;2023-12-20T13:35:34;7.10;92.40
13992;DHT22;7070;53.586;9.692;2023-12-20T13:38:01;7.00;92.40
13992;DHT22;7070;53.586;9.692;2023-12-20T13:40:28;7.00;92.30
13992;DHT22;7070;53.586;9.692;2023-12-20T13:42:55;7.00;92.40
13992;DHT22;7070;53.586;9.692;2023-12-20T13:45:23;6.90;92.40
13992;DHT22;7070;53.586;9.692;2023-12-20T13:47:51;7.00;92.40
13992;DHT22;7070;53.586;9.692;2023-12-20T13:50:17;6.90;92.50
13992;DHT22;7070;53.586;9.692;2023-12-20T13:52:44;6.90;92.60
13992;DHT22;7070;53.586;9.692;2023-12-20T13:55:12;6.90;92.70
13992;DHT22;7070;53.586;9.692;2023-12-20T13:57:39;6.90;92.90
13992;DHT22;7070;53.586;9.692;2023-12-20T14:00:07;7.00;92.90
13992;DHT22;7070;53.586;9.692;2023-12-20T14:02:41;7.00;92.90
13992;DHT22;7070;53.586;9.692;2023-12-20T14:05:08;7.10;93.20
13992;DHT22;7070;53.586;9.692;2023-12-20T14:07:35;7.10;93.10
13992;DHT22;7070;53.586;9.692;2023-12-20T14:10:03;7.10;93.00
13992;DHT22;7070;53.586;9.692;2023-12-20T14:12:31;7.10;93.00
13992;DHT22;7070;53.586;9.692;2023-12-20T14:15:01;7.20;93.10
13992;DHT22;7070;53.586;9.692;2023-12-20T14:17:28;7.30;93.10
13992;DHT22;7070;53.586;9.692;2023-12-20T14:19:58;7.20;92.90
13992;DHT22;7070;53.586;9.692;2023-12-20T14:22:25;7.20;92.90
13992;DHT22;7070;53.586;9.692;2023-12-20T14:24:54;7.30;93.10
13992;DHT22;7070;53.586;9.692;2023-12-20T14:27:22;7.30;93.10
13992;DHT22;7070;53.586;9.692;2023-12-20T14:29:50;7.30;93.00
13992;DHT22;7070;53.586;9.692;2023-12-20T14:32:17;7.30;92.90
13992;DHT22;7070;53.586;9.692;2023-12-20T14:34:43;7.30;92.90
13992;DHT22;7070;53.586;9.692;2023-12-20T14:37:12;7.20;92.50
13992;DHT22;7070;53.586;9.692;2023-12-20T14:39:39;7.20;92.40
13992;DHT22;7070;53.586;9.692;2023-12-20T14:42:07;7.10;92.30
13992;DHT22;7070;53.586;9.692;2023-12-20T14:44:36;7.00;92.30
13992;DHT22;7070;53.586;9.692;2023-12-20T14:47:03;7.00;92.30
13992;DHT22;7070;53.586;9.692;2023-12-20T14:49:30;6.90;92.20
13992;DHT22;7070;53.586;9.692;2023-12-20T14:51:57;6.80;92.20
13992;DHT22;7070;53.586;9.692;2023-12-20T14:54:26;6.70;92.10
13992;DHT22;7070;53.586;9.692;2023-12-20T14:56:53;6.60;92.20
13992;DHT22;7070;53.586;9.692;2023-12-20T14:59:20;6.60;92.30
13992;DHT22;7070;53.586;9.692;2023-12-20T15:01:47;6.50;92.20
13992;DHT22;7070;53.586;9.692;2023-12-20T15:04:14;6.50;92.30
13992;DHT22;7070;53.586;9.692;2023-12-20T15:06:41;6.50;92.40
13992;DHT22;7070;53.586;9.692;2023-12-20T15:09:08;6.40;92.50
13992;DHT22;7070;53.586;9.692;2023-12-20T15:11:36;6.40;92.60
13992;DHT22;7070;53.586;9.692;2023-12-20T15:14:03;6.40;92.60
13992;DHT22;7070;53.586;9.692;2023-12-20T15:16:30;6.40;92.50
13992;DHT22;7070;53.586;9.692;2023-12-20T15:18:57;6.40;92.40
13992;DHT22;7070;53.586;9.692;2023-12-20T15:21:24;6.30;92.40
13992;DHT22;7070;53.586;9.692;2023-12-20T15:23:57;6.30;92.50
13992;DHT22;7070;53.586;9.692;2023-12-20T15:26:31;6.20;92.50
13992;DHT22;7070;53.586;9.692;2023-12-20T15:29:13;6.20;92.50
13992;DHT22;7070;53.586;9.692;2023-12-20T15:31:43;6.10;92.30
13992;DHT22;7070;53.586;9.692;2023-12-20T15:34:09;6.10;92.20
13992;DHT22;7070;53.586;9.692;2023-12-20T15:36:36;5.60;92.00
13992;DHT22;7070;53.586;9.692;2023-12-20T15:39:04;6.00;92.30
13992;DHT22;7070;53.586;9.692;2023-12-20T15:41:31;6.00;92.30
13992;DHT22;7070;53.586;9.692;2023-12-20T15:44:00;5.90;92.20
13992;DHT22;7070;53.586;9.692;2023-12-20T15:46:26;5.90;92.20
13992;DHT22;7070;53.586;9.692;2023-12-20T15:48:53;5.80;92.20
13992;DHT22;7070;53.586;9.692;2023-12-20T15:51:21;5.80;92.40
13992;DHT22;7070;53.586;9.692;2023-12-20T15:53:47;5.80;92.40
13992;DHT22;7070;53.586;9.692;2023-12-20T15:56:15;5.80;92.70
13992;DHT22;7070;53.586;9.692;2023-12-20T15:58:42;5.80;93.20
13992;DHT22;7070;53.586;9.692;2023-12-20T16:01:10;5.90;93.00
13992;DHT22;7070;53.586;9.692;2023-12-20T16:03:37;5.90;92.90
13992;DHT22;7070;53.586;9.692;2023-12-20T16:06:04;6.00;92.80